createdAt,value
2018-02-10T00:01:35.585Z,8.59
2018-02-10T00:04:03.163Z,8.78
2018-02-10T00:06:30.712Z,8.90
2018-02-10T00:08:58.314Z,8.77
2018-02-10T00:11:25.919Z,8.58
2018-02-10T00:13:53.764Z,8.77
2018-02-10T00:16:21.306Z,8.67
2018-02-10T00:18:48.883Z,8.44
2018-02-10T00:21:16.440Z,8.34
2018-02-10T00:23:44.500Z,8.28
2018-02-10T00:26:12.478Z,8.05
2018-02-10T00:28:40.020Z,8.11
2018-02-10T00:31:07.572Z,8.57
2018-02-10T00:33:35.162Z,9.11
2018-02-10T00:36:02.725Z,9.49
2018-02-10T00:38:30.276Z,9.79
2018-02-10T00:40:57.888Z,10.07
2018-02-10T00:43:26.315Z,10.27
2018-02-10T00:45:53.917Z,10.45
2018-02-10T00:48:21.929Z,10.61
2018-02-10T00:50:49.470Z,10.66
2018-02-10T00:53:17.051Z,10.63
2018-02-10T00:55:45.451Z,10.07
2018-02-10T00:58:12.994Z,10.12
2018-02-10T01:00:41.209Z,10.31
2018-02-10T01:03:08.806Z,10.53
2018-02-10T01:05:36.347Z,10.65
2018-02-10T01:08:04.500Z,10.03
2018-02-10T01:10:32.231Z,9.62
2018-02-10T01:13:00.211Z,9.55
2018-02-10T01:15:27.798Z,9.55
2018-02-10T01:17:55.342Z,9.48
2018-02-10T01:20:22.910Z,9.64
2018-02-10T01:22:50.503Z,10.02
2018-02-10T01:25:18.055Z,10.26
2018-02-10T01:27:45.606Z,10.41
2018-02-10T01:30:13.594Z,10.37
2018-02-10T01:32:41.686Z,9.49
2018-02-10T01:35:09.650Z,8.94
2018-02-10T01:37:37.670Z,8.73
2018-02-10T01:40:05.254Z,8.44
2018-02-10T01:42:32.834Z,8.77
2018-02-10T01:45:00.373Z,9.29
2018-02-10T01:47:27.984Z,8.94
2018-02-10T01:50:07.164Z,8.54
2018-02-10T01:52:34.755Z,8.05
2018-02-10T01:55:02.348Z,7.79
2018-02-10T01:57:29.902Z,7.90
2018-02-10T01:59:57.490Z,8.35
2018-02-10T02:02:25.038Z,8.47
2018-02-10T02:04:52.628Z,8.40
2018-02-10T02:07:20.240Z,8.57
2018-02-10T02:09:47.787Z,9.01
2018-02-10T02:12:15.334Z,8.58
2018-02-10T02:14:43.344Z,8.06
2018-02-10T02:17:11.214Z,8.12
2018-02-10T02:19:38.760Z,8.02
2018-02-10T02:22:06.347Z,8.06
2018-02-10T02:24:34.258Z,8.20
2018-02-10T02:27:02.223Z,8.41
2018-02-10T02:29:29.806Z,8.28
2018-02-10T02:31:57.990Z,8.11
2018-02-10T02:34:25.574Z,8.12
2018-02-10T02:36:53.180Z,8.30
2018-02-10T02:39:20.742Z,8.27
2018-02-10T02:41:48.278Z,8.01
2018-02-10T02:44:16.501Z,8.37
2018-02-10T02:46:44.230Z,8.84
2018-02-10T02:49:11.780Z,9.23
2018-02-10T02:51:39.328Z,9.56
2018-02-10T02:54:07.512Z,9.83
2018-02-10T02:56:35.509Z,9.95
2018-02-10T02:59:03.450Z,10.11
2018-02-10T03:01:31.037Z,10.24
2018-02-10T03:03:58.629Z,10.26
2018-02-10T03:06:26.197Z,10.27
2018-02-10T03:08:53.738Z,10.46
2018-02-10T03:11:21.327Z,10.52
2018-02-10T03:13:48.874Z,10.58
2018-02-10T03:16:16.471Z,9.88
2018-02-10T03:18:44.024Z,8.74
2018-02-10T03:21:11.570Z,9.25
2018-02-10T03:23:39.162Z,9.66
2018-02-10T03:26:07.120Z,9.85
2018-02-10T03:28:34.744Z,10.06
2018-02-10T03:31:02.332Z,9.99
2018-02-10T03:33:29.936Z,9.98
2018-02-10T03:35:57.492Z,10.10
2018-02-10T03:38:25.767Z,10.18
2018-02-10T03:40:53.360Z,10.26
2018-02-10T03:43:20.982Z,9.57
2018-02-10T03:45:48.565Z,8.96
2018-02-10T03:48:16.479Z,9.30
2018-02-10T03:50:44.026Z,9.35
2018-02-10T03:53:11.605Z,8.71
2018-02-10T03:55:39.556Z,7.78
2018-02-10T03:58:07.143Z,8.17
2018-02-10T04:00:34.687Z,8.68
2018-02-10T04:03:02.327Z,9.08
2018-02-10T04:05:30.554Z,9.33
2018-02-10T04:07:58.107Z,9.37
2018-02-10T04:10:26.389Z,8.60
2018-02-10T04:12:53.968Z,7.85
2018-02-10T04:15:21.586Z,7.79
2018-02-10T04:17:49.175Z,7.68
2018-02-10T04:20:16.759Z,6.97
2018-02-10T04:22:44.346Z,6.82
2018-02-10T04:25:11.886Z,6.87
2018-02-10T04:27:39.435Z,7.15
2018-02-10T04:30:07.013Z,6.89
2018-02-10T04:32:34.594Z,6.75
2018-02-10T04:35:02.187Z,6.68
2018-02-10T04:37:29.736Z,7.14
2018-02-10T04:39:57.269Z,7.22
2018-02-10T04:42:24.843Z,7.02
2018-02-10T04:44:52.463Z,7.00
2018-02-10T04:47:20.016Z,6.88
2018-02-10T04:49:47.619Z,6.67
2018-02-10T04:52:15.159Z,6.58
2018-02-10T04:54:43.133Z,6.82
2018-02-10T04:57:10.670Z,6.66
2018-02-10T04:59:38.902Z,6.51
2018-02-10T05:02:06.452Z,6.55
2018-02-10T05:04:34.007Z,6.61
2018-02-10T05:07:01.606Z,6.74
2018-02-10T05:09:29.520Z,6.74
2018-02-10T05:11:57.560Z,6.78
2018-02-10T05:14:25.124Z,6.80
2018-02-10T05:16:52.722Z,6.97
2018-02-10T05:19:20.269Z,6.98
2018-02-10T05:21:48.347Z,7.03
2018-02-10T05:24:15.901Z,7.03
2018-02-10T05:26:43.442Z,6.89
2018-02-10T05:29:11.022Z,7.05
2018-02-10T05:31:38.898Z,7.42
2018-02-10T05:34:06.873Z,7.16
2018-02-10T05:36:34.458Z,6.91
2018-02-10T05:39:01.999Z,6.82
2018-02-10T05:41:30.021Z,6.90
2018-02-10T05:43:57.563Z,7.15
2018-02-10T05:46:25.152Z,7.25
2018-02-10T05:48:52.715Z,7.57
2018-02-10T05:51:20.297Z,7.89
2018-02-10T05:53:48.473Z,7.57
2018-02-10T05:56:16.015Z,7.25
2018-02-10T05:58:43.843Z,7.08
2018-02-10T06:01:11.527Z,7.21
2018-02-10T06:03:39.109Z,7.81
2018-02-10T06:06:06.700Z,7.73
2018-02-10T06:08:34.916Z,7.52
2018-02-10T06:11:02.819Z,7.50
2018-02-10T06:13:30.370Z,7.71
2018-02-10T06:15:57.950Z,7.64
2018-02-10T06:18:26.027Z,7.49
2018-02-10T06:20:53.609Z,7.39
2018-02-10T06:23:21.158Z,7.32
2018-02-10T06:25:48.706Z,7.24
2018-02-10T06:28:16.709Z,7.30
2018-02-10T06:30:44.250Z,7.33
2018-02-10T06:33:11.847Z,7.32
2018-02-10T06:35:39.394Z,7.28
2018-02-10T06:38:06.983Z,7.29
2018-02-10T06:40:34.517Z,7.19
2018-02-10T06:43:02.080Z,7.31
2018-02-10T06:45:29.665Z,7.50
2018-02-10T06:47:57.275Z,7.64
2018-02-10T06:50:25.376Z,7.66
2018-02-10T06:52:52.923Z,7.65
2018-02-10T06:55:20.506Z,7.65
2018-02-10T06:57:48.094Z,7.73
2018-02-10T07:00:15.634Z,7.52
2018-02-10T07:02:43.176Z,7.39
2018-02-10T07:05:10.772Z,7.64
2018-02-10T07:07:38.396Z,7.55
2018-02-10T07:10:05.938Z,7.49
2018-02-10T07:12:33.478Z,7.36
2018-02-10T07:15:01.063Z,7.21
2018-02-10T07:17:28.756Z,7.22
2018-02-10T07:19:56.343Z,7.27
2018-02-10T07:22:23.891Z,7.38
2018-02-10T07:24:51.480Z,7.58
2018-02-10T07:27:19.034Z,8.09
2018-02-10T07:29:46.641Z,7.95
2018-02-10T07:32:14.197Z,8.07
2018-02-10T07:34:41.742Z,8.25
2018-02-10T07:37:09.345Z,8.15
2018-02-10T07:39:36.886Z,8.01
2018-02-10T07:42:05.300Z,8.19
2018-02-10T07:44:32.889Z,8.58
2018-02-10T07:47:00.434Z,8.93
2018-02-10T07:49:28.040Z,8.74
2018-02-10T07:51:55.592Z,8.65
2018-02-10T07:54:23.200Z,8.81
2018-02-10T07:56:51.193Z,9.16
2018-02-10T07:59:18.757Z,9.33
2018-02-10T08:01:46.350Z,9.18
2018-02-10T08:04:14.289Z,9.36
2018-02-10T08:06:41.844Z,9.49
2018-02-10T08:09:09.426Z,9.44
2018-02-10T08:11:36.966Z,9.68
2018-02-10T08:14:04.824Z,9.90
2018-02-10T08:16:32.384Z,9.69
2018-02-10T08:19:01.359Z,8.89
2018-02-10T08:21:28.953Z,8.82
2018-02-10T08:23:56.495Z,9.27
2018-02-10T08:26:24.086Z,9.66
2018-02-10T08:28:52.378Z,9.89
2018-02-10T08:31:20.483Z,9.93
2018-02-10T08:33:48.342Z,9.48
2018-02-10T08:36:16.912Z,9.65
2018-02-10T08:38:45.261Z,9.95
2018-02-10T08:41:12.852Z,10.20
2018-02-10T08:43:40.859Z,10.31
2018-02-10T08:46:08.543Z,10.47
2018-02-10T08:48:36.990Z,10.53
2018-02-10T08:51:05.809Z,10.62
2018-02-10T08:53:34.054Z,10.61
2018-02-10T08:56:02.133Z,10.69
2018-02-10T08:58:30.046Z,10.77
2018-02-10T09:00:57.676Z,10.78
2018-02-10T09:03:25.238Z,10.94
2018-02-10T09:05:52.844Z,11.00
2018-02-10T09:08:20.409Z,11.01
2018-02-10T09:10:48.021Z,11.10
2018-02-10T09:13:15.624Z,11.20
2018-02-10T09:15:44.203Z,11.23
2018-02-10T09:18:11.800Z,11.27
2018-02-10T09:20:40.155Z,11.28
2018-02-10T09:23:07.767Z,11.31
2018-02-10T09:25:36.114Z,11.00
2018-02-10T09:28:03.658Z,10.81
2018-02-10T09:30:31.253Z,10.25
2018-02-10T09:32:58.894Z,10.48
2018-02-10T09:35:26.436Z,10.74
2018-02-10T09:37:54.473Z,10.56
2018-02-10T09:40:22.066Z,10.64
2018-02-10T09:42:49.619Z,10.73
2018-02-10T09:45:17.702Z,10.49
2018-02-10T09:47:45.288Z,10.40
2018-02-10T09:50:12.848Z,10.66
2018-02-10T09:52:41.244Z,10.39
2018-02-10T09:55:08.952Z,10.46
2018-02-10T09:57:36.904Z,10.69
2018-02-10T10:00:04.875Z,10.78
2018-02-10T10:02:32.432Z,10.80
2018-02-10T10:05:00.832Z,10.90
2018-02-10T10:07:28.419Z,11.00
2018-02-10T10:09:56.381Z,11.19
2018-02-10T10:12:24.089Z,11.13
2018-02-10T10:14:52.628Z,11.19
2018-02-10T10:17:22.001Z,10.91
2018-02-10T10:19:50.720Z,11.04
2018-02-10T10:22:18.331Z,10.87
2018-02-10T10:24:47.156Z,10.65
2018-02-10T10:27:14.773Z,10.87
2018-02-10T10:29:43.063Z,10.64
2018-02-10T10:32:10.675Z,10.00
2018-02-10T10:34:39.091Z,9.65
2018-02-10T10:37:07.640Z,9.72
2018-02-10T10:39:35.190Z,9.82
2018-02-10T10:42:03.158Z,10.07
2018-02-10T10:44:32.578Z,10.29
2018-02-10T10:47:01.007Z,10.32
2018-02-10T10:49:29.311Z,10.54
2018-02-10T10:51:57.901Z,10.68
2018-02-10T10:54:25.508Z,10.77
2018-02-10T10:56:53.064Z,10.84
2018-02-10T10:59:21.107Z,10.89
2018-02-10T11:01:48.695Z,10.93
2018-02-10T11:04:16.300Z,11.08
2018-02-10T11:06:44.152Z,11.22
2018-02-10T11:09:12.250Z,11.36
2018-02-10T11:11:39.928Z,11.39
2018-02-10T11:14:08.351Z,11.48
2018-02-10T11:16:35.898Z,11.56
2018-02-10T11:19:03.472Z,11.62
2018-02-10T11:21:31.104Z,11.67
2018-02-10T11:23:58.687Z,11.71
2018-02-10T11:26:26.239Z,11.73
2018-02-10T11:28:54.475Z,11.78
2018-02-10T11:31:23.345Z,11.84
2018-02-10T11:33:50.909Z,11.90
2018-02-10T11:36:19.741Z,11.94
2018-02-10T11:38:48.073Z,11.98
2018-02-10T11:41:15.693Z,12.03
2018-02-10T11:43:43.256Z,11.97
2018-02-10T11:46:10.811Z,11.82
2018-02-10T11:48:38.408Z,11.66
2018-02-10T11:51:05.972Z,11.71
2018-02-10T11:53:34.334Z,11.73
2018-02-10T11:56:01.920Z,11.76
2018-02-10T11:58:30.025Z,11.73
2018-02-10T12:00:58.530Z,11.76
2018-02-10T12:03:26.517Z,11.80
2018-02-10T12:05:54.107Z,11.78
2018-02-10T12:08:22.407Z,11.71
2018-02-10T12:10:50.003Z,11.80
2018-02-10T12:13:17.595Z,11.87
2018-02-10T12:15:45.155Z,11.67
2018-02-10T12:18:14.224Z,11.68
2018-02-10T12:20:41.805Z,11.46
2018-02-10T12:23:10.578Z,11.41
2018-02-10T12:25:38.185Z,11.34
2018-02-10T12:28:05.752Z,11.42
2018-02-10T12:30:33.406Z,11.54
2018-02-10T12:33:00.980Z,11.57
2018-02-10T12:35:29.076Z,11.65
2018-02-10T12:37:57.556Z,11.76
2018-02-10T12:40:25.852Z,11.84
2018-02-10T12:42:53.415Z,11.91
2018-02-10T12:45:20.995Z,11.96
2018-02-10T12:50:58.875Z,11.87
2018-02-10T12:53:27.282Z,11.79
2018-02-10T12:55:55.151Z,11.71
2018-02-10T12:58:22.744Z,11.76
2018-02-10T13:00:50.281Z,11.81
2018-02-10T13:03:18.104Z,11.73
2018-02-10T13:05:45.711Z,11.74
2018-02-10T13:08:13.290Z,11.75
2018-02-10T13:10:42.142Z,11.78
2018-02-10T13:13:09.714Z,11.67
2018-02-10T13:15:37.991Z,11.64
2018-02-10T13:18:05.541Z,11.59
2018-02-10T13:20:33.376Z,11.67
2018-02-10T13:23:00.943Z,11.74
2018-02-10T13:25:29.726Z,11.73
2018-02-10T13:27:57.277Z,11.73
2018-02-10T13:30:24.824Z,11.75
2018-02-10T13:32:52.414Z,11.73
2018-02-10T13:35:19.993Z,11.68
2018-02-10T13:37:48.988Z,11.51
2018-02-10T13:40:17.060Z,11.30
2018-02-10T13:42:45.123Z,11.06
2018-02-10T13:45:12.677Z,11.06
2018-02-10T13:47:40.789Z,10.92
2018-02-10T13:50:08.416Z,10.82
2018-02-10T13:52:36.540Z,10.99
2018-02-10T13:55:04.591Z,11.02
2018-02-10T13:57:33.189Z,11.05
2018-02-10T14:00:00.862Z,10.93
2018-02-10T14:02:28.573Z,10.95
2018-02-10T14:04:56.810Z,10.78
2018-02-10T14:07:24.411Z,10.67
2018-02-10T14:09:52.465Z,10.67
2018-02-10T14:12:20.589Z,10.33
2018-02-10T14:14:48.178Z,10.41
2018-02-10T14:17:15.720Z,10.49
2018-02-10T14:19:43.485Z,10.36
2018-02-10T14:22:11.087Z,10.19
2018-02-10T14:24:39.193Z,10.25
2018-02-10T14:27:06.752Z,9.81
2018-02-10T14:29:34.785Z,9.33
2018-02-10T14:32:02.533Z,9.18
2018-02-10T14:34:31.195Z,9.10
2018-02-10T14:36:58.779Z,8.87
2018-02-10T14:39:26.486Z,8.71
2018-02-10T14:41:55.185Z,8.47
2018-02-10T14:44:23.260Z,8.56
2018-02-10T14:46:51.604Z,8.63
2018-02-10T14:49:19.375Z,8.45
2018-02-10T14:51:47.144Z,8.47
2018-02-10T14:54:15.064Z,8.37
2018-02-10T14:56:42.593Z,8.44
2018-02-10T14:59:11.313Z,8.66
2018-02-10T15:01:38.854Z,8.78
2018-02-10T15:04:06.399Z,8.59
2018-02-10T15:06:33.974Z,8.72
2018-02-10T15:09:01.514Z,8.47
2018-02-10T15:11:29.090Z,8.79
2018-02-10T15:13:56.625Z,8.74
2018-02-10T15:16:24.216Z,8.92
2018-02-10T15:18:51.741Z,9.11
2018-02-10T15:21:19.666Z,9.28
2018-02-10T15:23:47.253Z,9.51
2018-02-10T15:26:14.869Z,9.76
2018-02-10T15:28:42.410Z,9.98
2018-02-10T15:31:22.429Z,10.17
2018-02-10T15:34:02.482Z,10.08
2018-02-10T15:36:30.076Z,9.82
2018-02-10T15:38:58.076Z,9.32
2018-02-10T15:41:26.103Z,9.51
2018-02-10T15:43:54.506Z,9.37
2018-02-10T15:46:22.077Z,8.88
2018-02-10T15:48:50.451Z,8.81
2018-02-10T15:51:17.982Z,9.21
2018-02-10T15:53:45.563Z,9.52
2018-02-10T15:56:13.115Z,9.83
2018-02-10T15:58:40.655Z,10.03
2018-02-10T16:01:08.503Z,10.16
2018-02-10T16:03:36.080Z,10.15
2018-02-10T16:06:04.355Z,10.22
2018-02-10T16:08:32.694Z,10.28
2018-02-10T16:11:01.088Z,10.42
2018-02-10T16:13:28.683Z,10.58
2018-02-10T16:15:56.227Z,10.46
2018-02-10T16:18:24.454Z,10.51
2018-02-10T16:20:52.007Z,10.60
2018-02-10T16:23:19.985Z,10.62
2018-02-10T16:25:48.606Z,10.52
2018-02-10T16:28:16.416Z,10.51
2018-02-10T16:30:44.747Z,10.56
2018-02-10T16:33:12.697Z,10.58
2018-02-10T16:35:40.657Z,10.60
2018-02-10T16:38:10.132Z,10.75
2018-02-10T16:40:37.666Z,10.88
2018-02-10T16:43:05.983Z,10.88
2018-02-10T16:45:33.531Z,10.93
2018-02-10T16:48:01.261Z,10.81
2018-02-10T16:50:29.631Z,10.94
2018-02-10T16:52:57.172Z,11.06
2018-02-10T16:55:26.654Z,11.19
2018-02-10T16:57:54.628Z,11.29
2018-02-10T17:00:23.555Z,11.39
2018-02-10T17:02:51.846Z,11.46
2018-02-10T17:05:19.444Z,11.52
2018-02-10T17:07:47.049Z,11.59
2018-02-10T17:10:15.525Z,11.62
2018-02-10T17:12:43.193Z,11.65
2018-02-10T17:15:10.809Z,11.64
2018-02-10T17:17:38.346Z,11.67
2018-02-10T17:20:05.961Z,11.66
2018-02-10T17:22:34.275Z,11.65
2018-02-10T17:25:02.306Z,11.67
2018-02-10T17:27:29.902Z,11.68
2018-02-10T17:29:58.155Z,11.67
2018-02-10T17:32:25.704Z,11.65
2018-02-10T17:34:54.599Z,11.66
2018-02-10T17:37:23.030Z,11.69
2018-02-10T17:39:51.427Z,11.69
2018-02-10T17:42:19.008Z,11.69
2018-02-10T17:44:46.884Z,11.68
2018-02-10T17:47:14.421Z,11.67
2018-02-10T17:49:42.526Z,11.65
2018-02-10T17:52:10.801Z,11.68
2018-02-10T17:54:38.527Z,11.67
2018-02-10T17:57:06.117Z,11.64
2018-02-10T17:59:34.466Z,11.65
2018-02-10T18:02:06.408Z,11.66
2018-02-10T18:04:33.959Z,11.64
2018-02-10T18:07:01.546Z,11.64
2018-02-10T18:09:29.464Z,11.67
2018-02-10T18:11:58.761Z,11.69
2018-02-10T18:14:27.973Z,11.71
2018-02-10T18:16:55.554Z,11.69
2018-02-10T18:19:23.163Z,11.69
2018-02-10T18:21:51.002Z,11.67
2018-02-10T18:24:18.707Z,11.69
2018-02-10T18:26:47.156Z,11.69
2018-02-10T18:29:14.735Z,11.66
2018-02-10T18:31:42.375Z,11.67
2018-02-10T18:34:12.286Z,11.68
2018-02-10T18:36:40.390Z,11.66
2018-02-10T18:39:07.978Z,11.67
2018-02-10T18:41:35.535Z,11.66
2018-02-10T18:44:03.156Z,11.62
2018-02-10T18:46:30.798Z,11.61
2018-02-10T18:49:00.220Z,11.60
2018-02-10T18:51:27.771Z,11.59
2018-02-10T18:53:56.084Z,11.59
2018-02-10T18:56:23.680Z,11.58
2018-02-10T18:58:52.417Z,11.55
2018-02-10T19:01:19.964Z,11.53
2018-02-10T19:03:47.563Z,11.50
2018-02-10T19:06:15.147Z,11.49
2018-02-10T19:08:42.745Z,11.49
2018-02-10T19:11:10.286Z,11.48
2018-02-10T19:13:37.887Z,11.47
2018-02-10T19:16:05.431Z,11.48
2018-02-10T19:18:32.993Z,11.49
2018-02-10T19:21:00.934Z,11.48
2018-02-10T19:23:28.517Z,11.47
2018-02-10T19:25:56.340Z,11.48
2018-02-10T19:28:23.949Z,11.41
2018-02-10T19:30:51.507Z,11.39
2018-02-10T19:33:19.210Z,11.40
2018-02-10T19:35:46.822Z,11.39
2018-02-10T19:38:14.692Z,11.39
2018-02-10T19:40:42.292Z,11.41
2018-02-10T19:43:10.895Z,11.43
2018-02-10T19:45:38.507Z,11.43
2018-02-10T19:48:06.354Z,11.43
2018-02-10T19:50:33.943Z,11.41
2018-02-10T19:53:01.669Z,11.40
2018-02-10T19:55:29.254Z,11.40
2018-02-10T19:57:56.795Z,11.41
2018-02-10T20:00:24.386Z,11.40
2018-02-10T20:02:51.992Z,11.39
2018-02-10T20:05:19.566Z,11.40
2018-02-10T20:07:47.430Z,11.38
2018-02-10T20:10:15.919Z,11.36
2018-02-10T20:12:43.461Z,11.35
2018-02-10T20:15:12.051Z,11.33
2018-02-10T20:17:39.605Z,11.31
2018-02-10T20:20:07.228Z,11.28
2018-02-10T20:22:34.815Z,11.24
2018-02-10T20:25:02.367Z,11.23
2018-02-10T20:27:29.992Z,11.21
2018-02-10T20:29:57.854Z,11.24
2018-02-10T20:32:27.140Z,11.26
2018-02-10T20:34:54.910Z,11.29
2018-02-10T20:37:22.684Z,11.29
2018-02-10T20:39:50.213Z,11.29
2018-02-10T20:42:17.831Z,11.31
2018-02-10T20:44:45.370Z,11.31
2018-02-10T20:47:13.162Z,11.30
2018-02-10T20:49:40.750Z,11.28
2018-02-10T20:52:08.437Z,11.28
2018-02-10T20:54:36.301Z,11.29
2018-02-10T20:57:03.851Z,11.28
2018-02-10T20:59:31.460Z,11.25
2018-02-10T21:01:59.798Z,11.26
2018-02-10T21:04:28.582Z,11.27
2018-02-10T21:06:56.157Z,11.25
2018-02-10T21:09:23.701Z,11.22
2018-02-10T21:11:52.128Z,11.23
2018-02-10T21:14:19.706Z,11.23
2018-02-10T21:16:47.833Z,11.25
2018-02-10T21:19:15.374Z,11.27
2018-02-10T21:21:42.978Z,11.28
2018-02-10T21:24:10.673Z,11.27
2018-02-10T21:26:38.249Z,11.28
2018-02-10T21:29:07.019Z,11.27
2018-02-10T21:31:34.567Z,11.29
2018-02-10T21:34:02.674Z,11.27
2018-02-10T21:36:30.213Z,11.29
2018-02-10T21:38:57.815Z,11.29
2018-02-10T21:41:25.521Z,11.29
2018-02-10T21:43:53.125Z,11.28
2018-02-10T21:46:20.653Z,11.28
2018-02-10T21:48:48.185Z,11.27
2018-02-10T21:51:15.772Z,11.23
2018-02-10T21:53:43.298Z,11.24
2018-02-10T21:56:11.134Z,11.25
2018-02-10T21:58:38.680Z,11.25
2018-02-10T22:01:06.228Z,11.24
2018-02-10T22:03:34.609Z,11.26
2018-02-10T22:06:02.148Z,11.26
2018-02-10T22:08:29.702Z,11.24
2018-02-10T22:10:57.268Z,11.24
2018-02-10T22:13:25.351Z,11.25
2018-02-10T22:15:52.887Z,11.26
2018-02-10T22:18:20.472Z,11.27
2018-02-10T22:20:48.347Z,11.26
2018-02-10T22:23:15.875Z,11.26
2018-02-10T22:25:43.450Z,11.20
2018-02-10T22:28:10.983Z,11.21
2018-02-10T22:30:38.527Z,11.24
2018-02-10T22:33:06.199Z,11.25
2018-02-10T22:35:33.649Z,11.18
2018-02-10T22:38:01.217Z,11.20
2018-02-10T22:40:28.752Z,11.23
2018-02-10T22:42:56.567Z,11.23
2018-02-10T22:45:24.090Z,11.27
2018-02-10T22:47:51.631Z,10.71
2018-02-10T22:50:19.211Z,10.69
2018-02-10T22:52:46.742Z,10.79
2018-02-10T22:55:14.326Z,10.85
2018-02-10T22:57:42.793Z,10.79
2018-02-10T23:00:10.330Z,10.71
2018-02-10T23:02:38.136Z,10.71
2018-02-10T23:05:05.673Z,10.78
2018-02-10T23:07:33.250Z,10.85
2018-02-10T23:10:00.778Z,10.91
2018-02-10T23:12:28.346Z,10.89
2018-02-10T23:14:55.924Z,10.92
2018-02-10T23:17:23.511Z,10.76
2018-02-10T23:19:51.048Z,10.86
2018-02-10T23:22:18.623Z,10.82
2018-02-10T23:24:46.154Z,10.86
2018-02-10T23:27:13.744Z,10.88
2018-02-10T23:29:41.283Z,10.93
2018-02-10T23:32:08.858Z,10.98
2018-02-10T23:34:36.439Z,10.99
2018-02-10T23:37:03.975Z,11.02
2018-02-10T23:39:31.546Z,11.05
2018-02-10T23:41:59.086Z,11.10
2018-02-10T23:44:27.202Z,11.09
2018-02-10T23:46:54.734Z,11.12
2018-02-10T23:49:22.265Z,11.12
2018-02-10T23:51:49.839Z,11.13
2018-02-10T23:54:17.420Z,11.13
2018-02-10T23:56:45.136Z,11.13
2018-02-10T23:59:12.657Z,11.09
